sensor_id;sensor_type;location;lat;lon;timestamp;P1;durP1;ratioP1;P2;durP2;ratioP2
16642;SDS011;8435;52.184;5.406;2024-03-08T00:02:18;24.10;;;18.10;;
16642;SDS011;8435;52.184;5.406;2024-03-08T00:04:45;24.90;;;17.53;;
16642;SDS011;8435;52.184;5.406;2024-03-08T00:07:12;25.23;;;18.13;;
16642;SDS011;8435;52.184;5.406;2024-03-08T00:09:40;23.87;;;17.07;;
16642;SDS011;8435;52.184;5.406;2024-03-08T00:12:08;24.97;;;18.27;;
16642;SDS011;8435;52.184;5.406;2024-03-08T00:14:35;24.33;;;18.30;;
16642;SDS011;8435;52.184;5.406;2024-03-08T00:17:03;23.43;;;17.90;;
16642;SDS011;8435;52.184;5.406;2024-03-08T00:19:30;25.23;;;16.93;;
16642;SDS011;8435;52.184;5.406;2024-03-08T00:21:57;26.67;;;19.10;;
16642;SDS011;8435;52.184;5.406;2024-03-08T00:24:24;25.80;;;19.53;;
16642;SDS011;8435;52.184;5.406;2024-03-08T00:26:51;25.13;;;18.33;;
16642;SDS011;8435;52.184;5.406;2024-03-08T00:29:20;25.90;;;18.00;;
16642;SDS011;8435;52.184;5.406;2024-03-08T00:31:48;26.83;;;18.40;;
16642;SDS011;8435;52.184;5.406;2024-03-08T00:34:23;23.23;;;17.50;;
16642;SDS011;8435;52.184;5.406;2024-03-08T00:36:56;25.13;;;17.70;;
16642;SDS011;8435;52.184;5.406;2024-03-08T00:39:23;26.37;;;19.27;;
16642;SDS011;8435;52.184;5.406;2024-03-08T00:41:52;24.83;;;16.87;;
16642;SDS011;8435;52.184;5.406;2024-03-08T00:44:21;23.13;;;16.67;;
16642;SDS011;8435;52.184;5.406;2024-03-08T00:46:53;24.57;;;18.07;;
16642;SDS011;8435;52.184;5.406;2024-03-08T00:49:20;24.17;;;17.90;;
16642;SDS011;8435;52.184;5.406;2024-03-08T00:51:47;23.27;;;16.80;;
16642;SDS011;8435;52.184;5.406;2024-03-08T00:54:14;24.53;;;18.00;;
16642;SDS011;8435;52.184;5.406;2024-03-08T00:56:41;23.80;;;18.10;;
16642;SDS011;8435;52.184;5.406;2024-03-08T00:59:08;23.37;;;17.43;;
16642;SDS011;8435;52.184;5.406;2024-03-08T01:01:36;24.47;;;17.57;;
16642;SDS011;8435;52.184;5.406;2024-03-08T01:04:04;24.50;;;17.37;;
16642;SDS011;8435;52.184;5.406;2024-03-08T01:06:30;26.03;;;18.10;;
16642;SDS011;8435;52.184;5.406;2024-03-08T01:08:58;24.53;;;17.10;;
16642;SDS011;8435;52.184;5.406;2024-03-08T01:11:25;24.13;;;18.57;;
16642;SDS011;8435;52.184;5.406;2024-03-08T01:13:53;24.30;;;17.40;;
16642;SDS011;8435;52.184;5.406;2024-03-08T01:16:19;22.43;;;17.97;;
16642;SDS011;8435;52.184;5.406;2024-03-08T01:18:48;29.10;;;18.90;;
16642;SDS011;8435;52.184;5.406;2024-03-08T01:21:15;26.30;;;19.53;;
16642;SDS011;8435;52.184;5.406;2024-03-08T01:23:42;23.73;;;18.10;;
16642;SDS011;8435;52.184;5.406;2024-03-08T01:26:08;24.90;;;17.90;;
16642;SDS011;8435;52.184;5.406;2024-03-08T01:28:36;22.23;;;17.80;;
16642;SDS011;8435;52.184;5.406;2024-03-08T01:31:03;26.20;;;17.93;;
16642;SDS011;8435;52.184;5.406;2024-03-08T01:33:31;24.57;;;18.43;;
16642;SDS011;8435;52.184;5.406;2024-03-08T01:35:59;24.93;;;17.93;;
16642;SDS011;8435;52.184;5.406;2024-03-08T01:38:25;23.47;;;18.40;;
16642;SDS011;8435;52.184;5.406;2024-03-08T01:40:52;24.57;;;17.90;;
16642;SDS011;8435;52.184;5.406;2024-03-08T01:43:19;23.47;;;17.30;;
16642;SDS011;8435;52.184;5.406;2024-03-08T01:45:48;23.03;;;18.07;;
16642;SDS011;8435;52.184;5.406;2024-03-08T01:48:15;22.83;;;17.43;;
16642;SDS011;8435;52.184;5.406;2024-03-08T01:50:43;25.27;;;17.97;;
16642;SDS011;8435;52.184;5.406;2024-03-08T01:53:13;25.03;;;18.60;;
16642;SDS011;8435;52.184;5.406;2024-03-08T01:55:40;26.03;;;19.17;;
16642;SDS011;8435;52.184;5.406;2024-03-08T01:58:09;25.80;;;18.97;;
16642;SDS011;8435;52.184;5.406;2024-03-08T02:00:36;24.07;;;17.57;;
16642;SDS011;8435;52.184;5.406;2024-03-08T02:03:06;23.63;;;17.47;;
16642;SDS011;8435;52.184;5.406;2024-03-08T02:05:33;23.47;;;18.07;;
16642;SDS011;8435;52.184;5.406;2024-03-08T02:08:00;22.07;;;17.73;;
16642;SDS011;8435;52.184;5.406;2024-03-08T02:10:29;23.93;;;18.17;;
16642;SDS011;8435;52.184;5.406;2024-03-08T02:12:56;24.97;;;18.23;;
16642;SDS011;8435;52.184;5.406;2024-03-08T02:15:23;23.87;;;18.10;;
16642;SDS011;8435;52.184;5.406;2024-03-08T02:17:51;24.97;;;18.50;;
16642;SDS011;8435;52.184;5.406;2024-03-08T02:20:18;24.63;;;17.80;;
16642;SDS011;8435;52.184;5.406;2024-03-08T02:22:46;22.73;;;17.10;;
16642;SDS011;8435;52.184;5.406;2024-03-08T02:25:13;24.70;;;18.43;;
16642;SDS011;8435;52.184;5.406;2024-03-08T02:27:40;22.53;;;18.47;;
16642;SDS011;8435;52.184;5.406;2024-03-08T02:30:08;25.23;;;18.43;;
16642;SDS011;8435;52.184;5.406;2024-03-08T02:32:37;24.80;;;19.40;;
16642;SDS011;8435;52.184;5.406;2024-03-08T02:35:04;23.27;;;18.43;;
16642;SDS011;8435;52.184;5.406;2024-03-08T02:37:31;27.43;;;20.00;;
16642;SDS011;8435;52.184;5.406;2024-03-08T02:39:59;24.67;;;19.37;;
16642;SDS011;8435;52.184;5.406;2024-03-08T02:42:26;25.50;;;18.83;;
16642;SDS011;8435;52.184;5.406;2024-03-08T02:44:53;25.33;;;19.30;;
16642;SDS011;8435;52.184;5.406;2024-03-08T02:47:20;26.43;;;18.97;;
16642;SDS011;8435;52.184;5.406;2024-03-08T02:49:47;24.33;;;18.37;;
16642;SDS011;8435;52.184;5.406;2024-03-08T02:52:15;24.00;;;19.07;;
16642;SDS011;8435;52.184;5.406;2024-03-08T02:54:42;25.57;;;19.70;;
16642;SDS011;8435;52.184;5.406;2024-03-08T02:57:10;25.27;;;19.67;;
16642;SDS011;8435;52.184;5.406;2024-03-08T02:59:37;26.83;;;18.97;;
16642;SDS011;8435;52.184;5.406;2024-03-08T03:02:05;29.83;;;19.93;;
16642;SDS011;8435;52.184;5.406;2024-03-08T03:04:32;26.10;;;19.03;;
16642;SDS011;8435;52.184;5.406;2024-03-08T03:06:59;23.63;;;19.07;;
16642;SDS011;8435;52.184;5.406;2024-03-08T03:09:26;28.13;;;19.87;;
16642;SDS011;8435;52.184;5.406;2024-03-08T03:11:53;27.77;;;19.17;;
16642;SDS011;8435;52.184;5.406;2024-03-08T03:14:22;24.43;;;19.30;;
16642;SDS011;8435;52.184;5.406;2024-03-08T03:16:48;29.63;;;19.67;;
16642;SDS011;8435;52.184;5.406;2024-03-08T03:19:15;26.67;;;19.30;;
16642;SDS011;8435;52.184;5.406;2024-03-08T03:21:42;24.77;;;18.10;;
16642;SDS011;8435;52.184;5.406;2024-03-08T03:24:09;24.83;;;19.20;;
16642;SDS011;8435;52.184;5.406;2024-03-08T03:26:37;24.43;;;18.73;;
16642;SDS011;8435;52.184;5.406;2024-03-08T03:29:05;25.17;;;17.63;;
16642;SDS011;8435;52.184;5.406;2024-03-08T03:31:34;25.30;;;19.47;;
16642;SDS011;8435;52.184;5.406;2024-03-08T03:34:03;25.43;;;18.90;;
16642;SDS011;8435;52.184;5.406;2024-03-08T03:36:33;23.13;;;18.67;;
16642;SDS011;8435;52.184;5.406;2024-03-08T03:39:03;26.47;;;19.60;;
16642;SDS011;8435;52.184;5.406;2024-03-08T03:41:35;27.23;;;19.67;;
16642;SDS011;8435;52.184;5.406;2024-03-08T03:44:03;22.47;;;18.70;;
16642;SDS011;8435;52.184;5.406;2024-03-08T03:46:31;25.77;;;18.93;;
16642;SDS011;8435;52.184;5.406;2024-03-08T03:48:59;25.60;;;20.30;;
16642;SDS011;8435;52.184;5.406;2024-03-08T03:51:26;25.77;;;19.30;;
16642;SDS011;8435;52.184;5.406;2024-03-08T03:53:54;27.03;;;19.97;;
16642;SDS011;8435;52.184;5.406;2024-03-08T03:56:24;26.03;;;20.73;;
16642;SDS011;8435;52.184;5.406;2024-03-08T03:58:51;26.20;;;20.77;;
16642;SDS011;8435;52.184;5.406;2024-03-08T04:01:18;23.73;;;19.67;;
16642;SDS011;8435;52.184;5.406;2024-03-08T04:03:45;26.57;;;20.30;;
16642;SDS011;8435;52.184;5.406;2024-03-08T04:06:13;26.13;;;20.00;;
16642;SDS011;8435;52.184;5.406;2024-03-08T04:08:40;26.20;;;20.33;;
16642;SDS011;8435;52.184;5.406;2024-03-08T04:11:07;29.23;;;20.97;;
16642;SDS011;8435;52.184;5.406;2024-03-08T04:13:34;25.93;;;20.67;;
16642;SDS011;8435;52.184;5.406;2024-03-08T04:16:02;25.60;;;20.03;;
16642;SDS011;8435;52.184;5.406;2024-03-08T04:18:33;25.87;;;19.97;;
16642;SDS011;8435;52.184;5.406;2024-03-08T04:21:00;24.83;;;20.80;;
16642;SDS011;8435;52.184;5.406;2024-03-08T04:23:29;25.67;;;20.50;;
16642;SDS011;8435;52.184;5.406;2024-03-08T04:25:55;27.37;;;21.00;;
16642;SDS011;8435;52.184;5.406;2024-03-08T04:28:22;26.03;;;19.63;;
16642;SDS011;8435;52.184;5.406;2024-03-08T04:30:51;23.40;;;19.50;;
16642;SDS011;8435;52.184;5.406;2024-03-08T04:33:18;24.33;;;20.10;;
16642;SDS011;8435;52.184;5.406;2024-03-08T04:35:45;31.80;;;21.07;;
16642;SDS011;8435;52.184;5.406;2024-03-08T04:38:12;27.77;;;22.10;;
16642;SDS011;8435;52.184;5.406;2024-03-08T04:40:41;26.40;;;19.93;;
16642;SDS011;8435;52.184;5.406;2024-03-08T04:43:08;28.63;;;22.73;;
16642;SDS011;8435;52.184;5.406;2024-03-08T04:45:35;28.67;;;22.47;;
16642;SDS011;8435;52.184;5.406;2024-03-08T04:48:02;24.00;;;20.10;;
16642;SDS011;8435;52.184;5.406;2024-03-08T04:50:29;25.70;;;20.37;;
16642;SDS011;8435;52.184;5.406;2024-03-08T04:52:56;30.47;;;21.60;;
16642;SDS011;8435;52.184;5.406;2024-03-08T04:55:23;25.73;;;20.53;;
16642;SDS011;8435;52.184;5.406;2024-03-08T04:57:51;25.73;;;19.77;;
16642;SDS011;8435;52.184;5.406;2024-03-08T05:00:18;23.80;;;20.43;;
16642;SDS011;8435;52.184;5.406;2024-03-08T05:02:45;26.07;;;20.00;;
16642;SDS011;8435;52.184;5.406;2024-03-08T05:05:12;24.83;;;20.13;;
16642;SDS011;8435;52.184;5.406;2024-03-08T05:07:40;29.40;;;22.70;;
16642;SDS011;8435;52.184;5.406;2024-03-08T05:10:08;25.07;;;20.43;;
16642;SDS011;8435;52.184;5.406;2024-03-08T05:12:35;27.37;;;21.37;;
16642;SDS011;8435;52.184;5.406;2024-03-08T05:15:05;27.93;;;21.03;;
16642;SDS011;8435;52.184;5.406;2024-03-08T05:17:33;27.60;;;21.70;;
16642;SDS011;8435;52.184;5.406;2024-03-08T05:19:59;27.10;;;21.47;;
16642;SDS011;8435;52.184;5.406;2024-03-08T05:22:26;26.07;;;20.70;;
16642;SDS011;8435;52.184;5.406;2024-03-08T05:24:53;28.63;;;21.73;;
16642;SDS011;8435;52.184;5.406;2024-03-08T05:27:20;25.93;;;20.93;;
16642;SDS011;8435;52.184;5.406;2024-03-08T05:29:47;27.73;;;21.37;;
16642;SDS011;8435;52.184;5.406;2024-03-08T05:32:15;27.13;;;20.77;;
16642;SDS011;8435;52.184;5.406;2024-03-08T05:34:42;26.90;;;20.63;;
16642;SDS011;8435;52.184;5.406;2024-03-08T05:37:09;25.83;;;20.87;;
16642;SDS011;8435;52.184;5.406;2024-03-08T05:39:36;26.03;;;21.80;;
16642;SDS011;8435;52.184;5.406;2024-03-08T05:42:03;26.80;;;21.00;;
16642;SDS011;8435;52.184;5.406;2024-03-08T05:44:30;28.17;;;21.23;;
16642;SDS011;8435;52.184;5.406;2024-03-08T05:46:57;24.80;;;20.87;;
16642;SDS011;8435;52.184;5.406;2024-03-08T05:49:25;27.33;;;20.70;;
16642;SDS011;8435;52.184;5.406;2024-03-08T05:51:52;30.30;;;22.63;;
16642;SDS011;8435;52.184;5.406;2024-03-08T05:54:19;27.93;;;20.67;;
16642;SDS011;8435;52.184;5.406;2024-03-08T05:56:47;29.50;;;21.57;;
16642;SDS011;8435;52.184;5.406;2024-03-08T05:59:17;27.57;;;21.93;;
16642;SDS011;8435;52.184;5.406;2024-03-08T06:01:44;27.07;;;22.30;;
16642;SDS011;8435;52.184;5.406;2024-03-08T06:04:12;27.33;;;21.60;;
16642;SDS011;8435;52.184;5.406;2024-03-08T06:06:40;26.90;;;20.70;;
16642;SDS011;8435;52.184;5.406;2024-03-08T06:09:07;28.50;;;21.70;;
16642;SDS011;8435;52.184;5.406;2024-03-08T06:11:36;26.30;;;21.53;;
16642;SDS011;8435;52.184;5.406;2024-03-08T06:14:03;27.73;;;22.00;;
16642;SDS011;8435;52.184;5.406;2024-03-08T06:16:31;27.30;;;21.53;;
16642;SDS011;8435;52.184;5.406;2024-03-08T06:19:00;28.63;;;21.70;;
16642;SDS011;8435;52.184;5.406;2024-03-08T06:21:28;27.23;;;21.77;;
16642;SDS011;8435;52.184;5.406;2024-03-08T06:23:56;27.60;;;22.30;;
16642;SDS011;8435;52.184;5.406;2024-03-08T06:26:23;28.50;;;21.97;;
16642;SDS011;8435;52.184;5.406;2024-03-08T06:28:53;25.53;;;21.63;;
16642;SDS011;8435;52.184;5.406;2024-03-08T06:31:19;27.43;;;21.80;;
16642;SDS011;8435;52.184;5.406;2024-03-08T06:33:46;25.50;;;21.50;;
16642;SDS011;8435;52.184;5.406;2024-03-08T06:36:15;26.80;;;21.47;;
16642;SDS011;8435;52.184;5.406;2024-03-08T06:38:43;26.47;;;20.87;;
16642;SDS011;8435;52.184;5.406;2024-03-08T06:41:12;27.73;;;22.33;;
16642;SDS011;8435;52.184;5.406;2024-03-08T06:43:40;25.77;;;21.90;;
16642;SDS011;8435;52.184;5.406;2024-03-08T06:46:08;30.07;;;22.40;;
16642;SDS011;8435;52.184;5.406;2024-03-08T06:48:34;28.97;;;22.33;;
16642;SDS011;8435;52.184;5.406;2024-03-08T06:51:02;27.20;;;21.70;;
16642;SDS011;8435;52.184;5.406;2024-03-08T06:53:30;25.30;;;20.80;;
16642;SDS011;8435;52.184;5.406;2024-03-08T06:55:57;27.47;;;22.57;;
16642;SDS011;8435;52.184;5.406;2024-03-08T06:58:25;27.60;;;21.77;;
16642;SDS011;8435;52.184;5.406;2024-03-08T07:00:52;29.23;;;21.63;;
16642;SDS011;8435;52.184;5.406;2024-03-08T07:03:23;26.67;;;22.13;;
16642;SDS011;8435;52.184;5.406;2024-03-08T07:05:51;28.57;;;22.27;;
16642;SDS011;8435;52.184;5.406;2024-03-08T07:08:19;27.40;;;22.10;;
16642;SDS011;8435;52.184;5.406;2024-03-08T07:10:47;24.87;;;20.97;;
16642;SDS011;8435;52.184;5.406;2024-03-08T07:13:14;27.17;;;22.63;;
16642;SDS011;8435;52.184;5.406;2024-03-08T07:15:43;27.90;;;21.57;;
16642;SDS011;8435;52.184;5.406;2024-03-08T07:18:10;27.13;;;22.40;;
16642;SDS011;8435;52.184;5.406;2024-03-08T07:20:39;27.93;;;22.23;;
16642;SDS011;8435;52.184;5.406;2024-03-08T07:23:06;25.53;;;21.67;;
16642;SDS011;8435;52.184;5.406;2024-03-08T07:25:35;27.20;;;23.13;;
16642;SDS011;8435;52.184;5.406;2024-03-08T07:28:04;25.70;;;22.10;;
16642;SDS011;8435;52.184;5.406;2024-03-08T07:30:32;28.73;;;22.20;;
16642;SDS011;8435;52.184;5.406;2024-03-08T07:33:17;25.17;;;21.50;;
16642;SDS011;8435;52.184;5.406;2024-03-08T07:35:43;27.30;;;22.37;;
16642;SDS011;8435;52.184;5.406;2024-03-08T07:38:12;25.87;;;22.23;;
16642;SDS011;8435;52.184;5.406;2024-03-08T07:40:39;28.27;;;23.10;;
16642;SDS011;8435;52.184;5.406;2024-03-08T07:43:09;26.17;;;22.53;;
16642;SDS011;8435;52.184;5.406;2024-03-08T07:45:36;24.73;;;21.50;;
16642;SDS011;8435;52.184;5.406;2024-03-08T07:48:03;26.57;;;22.17;;
16642;SDS011;8435;52.184;5.406;2024-03-08T07:50:36;25.77;;;21.37;;
16642;SDS011;8435;52.184;5.406;2024-03-08T07:53:04;26.17;;;21.87;;
16642;SDS011;8435;52.184;5.406;2024-03-08T07:55:31;30.10;;;24.33;;
16642;SDS011;8435;52.184;5.406;2024-03-08T07:57:58;27.27;;;22.37;;
16642;SDS011;8435;52.184;5.406;2024-03-08T08:00:25;30.33;;;22.67;;
16642;SDS011;8435;52.184;5.406;2024-03-08T08:02:52;24.73;;;22.03;;
16642;SDS011;8435;52.184;5.406;2024-03-08T08:05:19;26.97;;;22.07;;
16642;SDS011;8435;52.184;5.406;2024-03-08T08:07:47;25.13;;;21.40;;
16642;SDS011;8435;52.184;5.406;2024-03-08T08:10:14;24.73;;;22.03;;
16642;SDS011;8435;52.184;5.406;2024-03-08T08:12:43;24.53;;;21.50;;
16642;SDS011;8435;52.184;5.406;2024-03-08T08:15:11;24.70;;;22.00;;
16642;SDS011;8435;52.184;5.406;2024-03-08T08:17:40;24.67;;;21.50;;
16642;SDS011;8435;52.184;5.406;2024-03-08T08:20:07;24.17;;;21.57;;
16642;SDS011;8435;52.184;5.406;2024-03-08T08:22:36;23.57;;;20.90;;
16642;SDS011;8435;52.184;5.406;2024-03-08T08:25:05;24.03;;;21.47;;
16642;SDS011;8435;52.184;5.406;2024-03-08T08:27:32;24.40;;;21.80;;
16642;SDS011;8435;52.184;5.406;2024-03-08T08:30:01;25.07;;;22.00;;
16642;SDS011;8435;52.184;5.406;2024-03-08T08:32:33;24.03;;;21.10;;
16642;SDS011;8435;52.184;5.406;2024-03-08T08:35:00;23.47;;;20.87;;
16642;SDS011;8435;52.184;5.406;2024-03-08T08:37:27;23.73;;;21.13;;
16642;SDS011;8435;52.184;5.406;2024-03-08T08:39:54;23.43;;;20.93;;
16642;SDS011;8435;52.184;5.406;2024-03-08T08:42:22;25.00;;;22.00;;
16642;SDS011;8435;52.184;5.406;2024-03-08T08:44:50;24.47;;;21.57;;
16642;SDS011;8435;52.184;5.406;2024-03-08T08:47:17;22.80;;;20.30;;
16642;SDS011;8435;52.184;5.406;2024-03-08T08:49:44;24.07;;;21.53;;
16642;SDS011;8435;52.184;5.406;2024-03-08T08:52:12;22.37;;;19.70;;
16642;SDS011;8435;52.184;5.406;2024-03-08T08:54:40;25.17;;;21.77;;
16642;SDS011;8435;52.184;5.406;2024-03-08T08:57:07;26.33;;;21.70;;
16642;SDS011;8435;52.184;5.406;2024-03-08T08:59:35;25.50;;;21.77;;
16642;SDS011;8435;52.184;5.406;2024-03-08T09:02:04;25.10;;;21.60;;
16642;SDS011;8435;52.184;5.406;2024-03-08T09:04:31;22.17;;;19.83;;
16642;SDS011;8435;52.184;5.406;2024-03-08T09:06:58;22.70;;;20.27;;
16642;SDS011;8435;52.184;5.406;2024-03-08T09:09:26;22.83;;;19.70;;
16642;SDS011;8435;52.184;5.406;2024-03-08T09:11:54;22.67;;;20.27;;
16642;SDS011;8435;52.184;5.406;2024-03-08T09:14:21;23.13;;;20.23;;
16642;SDS011;8435;52.184;5.406;2024-03-08T09:16:49;24.97;;;22.27;;
16642;SDS011;8435;52.184;5.406;2024-03-08T09:19:16;24.80;;;21.53;;
16642;SDS011;8435;52.184;5.406;2024-03-08T09:21:44;24.17;;;21.67;;
16642;SDS011;8435;52.184;5.406;2024-03-08T09:24:12;23.97;;;20.70;;
16642;SDS011;8435;52.184;5.406;2024-03-08T09:26:38;23.70;;;21.20;;
16642;SDS011;8435;52.184;5.406;2024-03-08T09:29:07;21.67;;;19.43;;
16642;SDS011;8435;52.184;5.406;2024-03-08T09:31:35;22.33;;;19.97;;
16642;SDS011;8435;52.184;5.406;2024-03-08T09:34:04;23.13;;;19.47;;
16642;SDS011;8435;52.184;5.406;2024-03-08T09:36:33;21.97;;;19.63;;
16642;SDS011;8435;52.184;5.406;2024-03-08T09:39:00;21.27;;;18.70;;
16642;SDS011;8435;52.184;5.406;2024-03-08T09:41:27;24.47;;;20.73;;
16642;SDS011;8435;52.184;5.406;2024-03-08T09:43:56;23.77;;;20.10;;
16642;SDS011;8435;52.184;5.406;2024-03-08T09:46:24;22.17;;;19.87;;
16642;SDS011;8435;52.184;5.406;2024-03-08T09:48:52;22.00;;;19.60;;
16642;SDS011;8435;52.184;5.406;2024-03-08T09:51:20;23.00;;;20.47;;
16642;SDS011;8435;52.184;5.406;2024-03-08T09:53:51;21.43;;;19.13;;
16642;SDS011;8435;52.184;5.406;2024-03-08T09:56:18;22.50;;;20.07;;
16642;SDS011;8435;52.184;5.406;2024-03-08T09:58:45;21.50;;;19.20;;
16642;SDS011;8435;52.184;5.406;2024-03-08T10:01:39;23.43;;;19.10;;
16642;SDS011;8435;52.184;5.406;2024-03-08T10:04:06;23.10;;;19.10;;
16642;SDS011;8435;52.184;5.406;2024-03-08T10:06:36;23.27;;;19.80;;
16642;SDS011;8435;52.184;5.406;2024-03-08T10:09:03;22.03;;;19.60;;
16642;SDS011;8435;52.184;5.406;2024-03-08T10:11:32;21.23;;;19.03;;
16642;SDS011;8435;52.184;5.406;2024-03-08T10:14:00;23.17;;;20.50;;
16642;SDS011;8435;52.184;5.406;2024-03-08T10:16:27;22.40;;;20.00;;
16642;SDS011;8435;52.184;5.406;2024-03-08T10:18:55;21.93;;;18.70;;
16642;SDS011;8435;52.184;5.406;2024-03-08T10:21:22;22.30;;;18.67;;
16642;SDS011;8435;52.184;5.406;2024-03-08T10:23:51;22.40;;;19.87;;
16642;SDS011;8435;52.184;5.406;2024-03-08T10:26:18;20.90;;;18.53;;
16642;SDS011;8435;52.184;5.406;2024-03-08T10:28:47;19.47;;;17.33;;
16642;SDS011;8435;52.184;5.406;2024-03-08T10:31:15;20.13;;;17.97;;
16642;SDS011;8435;52.184;5.406;2024-03-08T10:33:42;21.07;;;18.70;;
16642;SDS011;8435;52.184;5.406;2024-03-08T10:36:09;21.60;;;19.07;;
16642;SDS011;8435;52.184;5.406;2024-03-08T10:38:38;20.73;;;18.37;;
16642;SDS011;8435;52.184;5.406;2024-03-08T10:41:08;19.40;;;17.37;;
16642;SDS011;8435;52.184;5.406;2024-03-08T10:43:39;23.17;;;19.23;;
16642;SDS011;8435;52.184;5.406;2024-03-08T10:46:15;22.03;;;19.70;;
16642;SDS011;8435;52.184;5.406;2024-03-08T10:48:49;20.87;;;17.70;;
16642;SDS011;8435;52.184;5.406;2024-03-08T10:51:18;19.83;;;17.37;;
16642;SDS011;8435;52.184;5.406;2024-03-08T10:53:46;20.37;;;18.17;;
16642;SDS011;8435;52.184;5.406;2024-03-08T10:56:15;21.50;;;17.60;;
16642;SDS011;8435;52.184;5.406;2024-03-08T10:58:42;20.73;;;17.50;;
16642;SDS011;8435;52.184;5.406;2024-03-08T11:01:10;20.67;;;18.40;;
16642;SDS011;8435;52.184;5.406;2024-03-08T11:03:43;20.50;;;18.27;;
16642;SDS011;8435;52.184;5.406;2024-03-08T11:06:13;21.30;;;19.00;;
16642;SDS011;8435;52.184;5.406;2024-03-08T11:08:42;22.33;;;18.53;;
16642;SDS011;8435;52.184;5.406;2024-03-08T11:11:24;22.17;;;18.97;;
16642;SDS011;8435;52.184;5.406;2024-03-08T11:13:56;21.37;;;18.13;;
16642;SDS011;8435;52.184;5.406;2024-03-08T11:16:39;20.60;;;18.27;;
16642;SDS011;8435;52.184;5.406;2024-03-08T11:21:57;20.30;;;18.13;;
16642;SDS011;8435;52.184;5.406;2024-03-08T11:24:24;19.20;;;17.20;;
16642;SDS011;8435;52.184;5.406;2024-03-08T11:26:55;20.70;;;16.93;;
16642;SDS011;8435;52.184;5.406;2024-03-08T11:29:38;18.63;;;16.67;;
16642;SDS011;8435;52.184;5.406;2024-03-08T11:32:08;19.63;;;17.57;;
16642;SDS011;8435;52.184;5.406;2024-03-08T11:34:37;19.70;;;17.20;;
16642;SDS011;8435;52.184;5.406;2024-03-08T11:37:10;19.90;;;17.80;;
16642;SDS011;8435;52.184;5.406;2024-03-08T11:39:38;19.73;;;17.63;;
16642;SDS011;8435;52.184;5.406;2024-03-08T11:42:07;19.30;;;16.03;;
16642;SDS011;8435;52.184;5.406;2024-03-08T11:44:36;19.37;;;16.27;;
16642;SDS011;8435;52.184;5.406;2024-03-08T11:47:07;18.40;;;16.40;;
16642;SDS011;8435;52.184;5.406;2024-03-08T11:49:35;17.47;;;15.57;;
16642;SDS011;8435;52.184;5.406;2024-03-08T11:52:02;18.00;;;15.63;;
16642;SDS011;8435;52.184;5.406;2024-03-08T11:54:29;17.10;;;15.30;;
16642;SDS011;8435;52.184;5.406;2024-03-08T11:56:56;18.43;;;16.50;;
16642;SDS011;8435;52.184;5.406;2024-03-08T11:59:27;18.43;;;16.43;;
16642;SDS011;8435;52.184;5.406;2024-03-08T12:02:01;17.47;;;15.67;;
16642;SDS011;8435;52.184;5.406;2024-03-08T12:04:29;16.00;;;14.27;;
16642;SDS011;8435;52.184;5.406;2024-03-08T12:06:58;17.77;;;15.87;;
16642;SDS011;8435;52.184;5.406;2024-03-08T12:09:27;18.43;;;15.43;;
16642;SDS011;8435;52.184;5.406;2024-03-08T12:11:54;17.60;;;15.70;;
16642;SDS011;8435;52.184;5.406;2024-03-08T12:14:21;17.50;;;14.80;;
16642;SDS011;8435;52.184;5.406;2024-03-08T12:16:51;16.50;;;14.37;;
16642;SDS011;8435;52.184;5.406;2024-03-08T12:19:18;19.23;;;15.53;;
16642;SDS011;8435;52.184;5.406;2024-03-08T12:21:45;16.93;;;15.23;;
16642;SDS011;8435;52.184;5.406;2024-03-08T12:24:14;17.07;;;15.00;;
16642;SDS011;8435;52.184;5.406;2024-03-08T12:26:44;16.60;;;14.50;;
16642;SDS011;8435;52.184;5.406;2024-03-08T12:29:20;16.57;;;14.87;;
16642;SDS011;8435;52.184;5.406;2024-03-08T12:31:47;16.70;;;14.60;;
16642;SDS011;8435;52.184;5.406;2024-03-08T12:34:18;16.40;;;14.70;;
16642;SDS011;8435;52.184;5.406;2024-03-08T12:36:46;17.03;;;14.83;;
16642;SDS011;8435;52.184;5.406;2024-03-08T12:39:17;15.80;;;13.93;;
16642;SDS011;8435;52.184;5.406;2024-03-08T12:41:47;15.97;;;14.27;;
16642;SDS011;8435;52.184;5.406;2024-03-08T12:44:14;16.53;;;14.80;;
16642;SDS011;8435;52.184;5.406;2024-03-08T12:46:42;18.10;;;14.40;;
16642;SDS011;8435;52.184;5.406;2024-03-08T12:49:12;16.03;;;14.30;;
16642;SDS011;8435;52.184;5.406;2024-03-08T12:51:42;16.53;;;14.00;;
16642;SDS011;8435;52.184;5.406;2024-03-08T12:54:10;15.70;;;14.10;;
16642;SDS011;8435;52.184;5.406;2024-03-08T12:56:37;18.77;;;14.77;;
16642;SDS011;8435;52.184;5.406;2024-03-08T12:59:05;16.83;;;15.03;;
16642;SDS011;8435;52.184;5.406;2024-03-08T13:01:33;16.33;;;14.50;;
16642;SDS011;8435;52.184;5.406;2024-03-08T13:04:02;18.60;;;15.93;;
16642;SDS011;8435;52.184;5.406;2024-03-08T13:06:32;17.97;;;16.07;;
16642;SDS011;8435;52.184;5.406;2024-03-08T13:08:59;17.93;;;16.03;;
16642;SDS011;8435;52.184;5.406;2024-03-08T13:11:30;19.53;;;15.87;;
16642;SDS011;8435;52.184;5.406;2024-03-08T13:14:01;17.70;;;14.93;;
16642;SDS011;8435;52.184;5.406;2024-03-08T13:16:29;18.07;;;15.27;;
16642;SDS011;8435;52.184;5.406;2024-03-08T13:18:56;19.03;;;15.70;;
16642;SDS011;8435;52.184;5.406;2024-03-08T13:21:23;18.60;;;15.83;;
16642;SDS011;8435;52.184;5.406;2024-03-08T13:23:51;18.63;;;16.00;;
16642;SDS011;8435;52.184;5.406;2024-03-08T13:26:20;18.00;;;15.47;;
16642;SDS011;8435;52.184;5.406;2024-03-08T13:28:47;17.93;;;15.07;;
16642;SDS011;8435;52.184;5.406;2024-03-08T13:31:18;18.53;;;14.87;;
16642;SDS011;8435;52.184;5.406;2024-03-08T13:33:45;17.03;;;15.23;;
16642;SDS011;8435;52.184;5.406;2024-03-08T13:36:12;16.70;;;14.90;;
16642;SDS011;8435;52.184;5.406;2024-03-08T13:38:40;16.57;;;14.77;;
16642;SDS011;8435;52.184;5.406;2024-03-08T13:41:10;17.73;;;15.93;;
16642;SDS011;8435;52.184;5.406;2024-03-08T13:43:39;18.07;;;15.83;;
16642;SDS011;8435;52.184;5.406;2024-03-08T13:46:06;17.10;;;15.30;;
16642;SDS011;8435;52.184;5.406;2024-03-08T13:48:35;17.10;;;15.30;;
16642;SDS011;8435;52.184;5.406;2024-03-08T13:51:03;17.37;;;15.57;;
16642;SDS011;8435;52.184;5.406;2024-03-08T13:53:31;16.87;;;15.13;;
16642;SDS011;8435;52.184;5.406;2024-03-08T13:55:58;17.70;;;15.90;;
16642;SDS011;8435;52.184;5.406;2024-03-08T13:58:26;18.60;;;16.20;;
16642;SDS011;8435;52.184;5.406;2024-03-08T14:00:53;18.20;;;15.57;;
16642;SDS011;8435;52.184;5.406;2024-03-08T14:03:20;17.93;;;16.03;;
16642;SDS011;8435;52.184;5.406;2024-03-08T14:05:48;16.53;;;14.80;;
16642;SDS011;8435;52.184;5.406;2024-03-08T14:08:15;17.00;;;15.20;;
16642;SDS011;8435;52.184;5.406;2024-03-08T14:10:42;15.63;;;14.07;;
16642;SDS011;8435;52.184;5.406;2024-03-08T14:13:19;15.37;;;13.77;;
16642;SDS011;8435;52.184;5.406;2024-03-08T14:15:48;15.63;;;14.10;;
16642;SDS011;8435;52.184;5.406;2024-03-08T14:18:15;17.07;;;15.27;;
16642;SDS011;8435;52.184;5.406;2024-03-08T14:20:43;16.40;;;14.30;;
16642;SDS011;8435;52.184;5.406;2024-03-08T14:23:11;17.07;;;15.37;;
16642;SDS011;8435;52.184;5.406;2024-03-08T14:25:38;17.20;;;15.37;;
16642;SDS011;8435;52.184;5.406;2024-03-08T14:28:05;17.27;;;15.43;;
16642;SDS011;8435;52.184;5.406;2024-03-08T14:30:32;16.00;;;14.30;;
16642;SDS011;8435;52.184;5.406;2024-03-08T14:33:04;17.40;;;15.60;;
16642;SDS011;8435;52.184;5.406;2024-03-08T14:35:34;17.10;;;15.30;;
16642;SDS011;8435;52.184;5.406;2024-03-08T14:38:00;17.53;;;15.60;;
16642;SDS011;8435;52.184;5.406;2024-03-08T14:40:28;17.17;;;15.37;;
16642;SDS011;8435;52.184;5.406;2024-03-08T14:42:55;17.07;;;15.20;;